createdAt,value
2022-10-17T00:02:44.327Z,3.47
2022-10-17T00:05:48.519Z,3.80
2022-10-17T00:08:52.419Z,2.87
2022-10-17T00:11:54.905Z,2.97
2022-10-17T00:14:57.412Z,2.60
2022-10-17T00:18:00.174Z,2.50
2022-10-17T00:21:02.670Z,2.57
2022-10-17T00:24:07.186Z,2.77
2022-10-17T00:27:09.748Z,2.50
2022-10-17T00:30:13.827Z,2.37
2022-10-17T00:33:16.327Z,2.40
2022-10-17T00:36:21.019Z,2.50
2022-10-17T00:39:24.863Z,2.50
2022-10-17T00:42:28.656Z,3.03
2022-10-17T00:45:32.455Z,2.93
2022-10-17T00:48:34.944Z,2.40
2022-10-17T00:51:41.756Z,2.40
2022-10-17T00:54:49.445Z,2.43
2022-10-17T00:57:53.286Z,2.43
2022-10-17T01:00:55.890Z,2.67
2022-10-17T01:07:15.215Z,2.40
2022-10-17T01:10:20.335Z,2.30
2022-10-17T01:13:30.958Z,2.23
2022-10-17T01:16:45.578Z,2.93
2022-10-17T01:20:11.024Z,2.40
2022-10-17T01:23:29.053Z,2.57
2022-10-17T01:26:50.096Z,2.60
2022-10-17T01:30:13.996Z,2.73
2022-10-17T01:33:25.154Z,2.37
2022-10-17T01:36:38.614Z,2.20
2022-10-17T01:39:45.573Z,2.33
2022-10-17T01:42:58.810Z,2.40
2022-10-17T01:46:11.176Z,2.27
2022-10-17T01:49:18.298Z,2.40
2022-10-17T01:52:24.154Z,2.20
2022-10-17T01:55:32.558Z,2.03
2022-10-17T01:58:41.350Z,2.00
2022-10-17T02:01:45.968Z,2.33
2022-10-17T02:04:52.585Z,2.27
2022-10-17T02:07:55.096Z,2.50
2022-10-17T02:11:03.446Z,2.20
2022-10-17T02:14:19.309Z,2.53
2022-10-17T02:17:35.020Z,2.27
2022-10-17T02:20:46.713Z,2.20
2022-10-17T02:23:54.954Z,2.50
2022-10-17T02:27:05.047Z,2.20
2022-10-17T02:30:12.549Z,2.17
2022-10-17T02:33:20.737Z,2.57
2022-10-17T02:36:31.611Z,2.00
2022-10-17T02:39:36.814Z,2.03
2022-10-17T02:42:40.369Z,1.80
2022-10-17T02:45:42.885Z,2.30
2022-10-17T02:48:50.079Z,2.00
2022-10-17T02:52:02.784Z,2.00
2022-10-17T02:55:11.663Z,1.63
2022-10-17T02:58:20.072Z,1.70
2022-10-17T03:01:22.926Z,2.03
2022-10-17T03:04:25.463Z,2.00
2022-10-17T03:07:29.304Z,2.00
2022-10-17T03:10:31.762Z,1.93
2022-10-17T03:13:36.342Z,2.00
2022-10-17T03:16:42.129Z,1.67
2022-10-17T03:19:44.613Z,1.80
2022-10-17T03:22:48.422Z,2.10
2022-10-17T03:25:50.910Z,1.70
2022-10-17T03:28:54.509Z,1.90
2022-10-17T03:31:57.313Z,1.77
2022-10-17T03:34:59.793Z,1.67
2022-10-17T03:38:03.615Z,1.80
2022-10-17T03:41:06.676Z,1.80
2022-10-17T03:44:09.193Z,2.00
2022-10-17T03:47:14.120Z,2.00
2022-10-17T03:50:16.926Z,1.83
2022-10-17T03:53:20.764Z,1.60
2022-10-17T03:56:24.886Z,1.80
2022-10-17T03:59:27.373Z,1.90
2022-10-17T04:02:29.897Z,1.70
2022-10-17T04:05:32.411Z,1.73
2022-10-17T04:08:36.505Z,1.83
2022-10-17T04:11:39.231Z,1.70
2022-10-17T04:14:41.703Z,1.70
2022-10-17T04:17:44.187Z,1.70
2022-10-17T04:20:46.660Z,1.80
2022-10-17T04:23:54.401Z,1.70
2022-10-17T04:26:56.914Z,1.80
2022-10-17T04:29:59.395Z,1.87
2022-10-17T04:33:01.891Z,1.83
2022-10-17T04:36:07.206Z,1.67
2022-10-17T04:39:11.075Z,1.80
2022-10-17T04:42:13.650Z,2.10
2022-10-17T04:45:16.180Z,2.10
2022-10-17T04:48:18.693Z,2.10
2022-10-17T04:51:23.271Z,1.70
2022-10-17T04:54:29.729Z,1.90
2022-10-17T04:57:35.778Z,1.97
2022-10-17T05:00:38.307Z,2.23
2022-10-17T05:03:40.931Z,1.80
2022-10-17T05:06:43.413Z,2.20
2022-10-17T05:09:47.264Z,1.90
2022-10-17T05:12:49.858Z,2.30
2022-10-17T05:15:52.365Z,2.00
2022-10-17T05:18:56.395Z,2.70
2022-10-17T05:21:58.913Z,2.10
2022-10-17T05:25:02.873Z,2.40
2022-10-17T05:28:05.470Z,2.10
2022-10-17T05:31:09.309Z,2.00
2022-10-17T05:34:13.909Z,1.90
2022-10-17T05:37:16.614Z,1.80
2022-10-17T05:40:21.369Z,2.13
2022-10-17T05:43:23.842Z,1.70
2022-10-17T05:46:26.456Z,1.90
2022-10-17T05:49:40.006Z,1.80
2022-10-17T05:52:47.405Z,1.73
2022-10-17T05:55:58.015Z,2.17
2022-10-17T05:59:01.188Z,1.90
2022-10-17T06:02:03.909Z,2.23
2022-10-17T06:05:06.987Z,2.30
2022-10-17T06:08:09.582Z,1.87
2022-10-17T06:11:14.326Z,2.13
2022-10-17T06:14:16.817Z,1.83
2022-10-17T06:17:19.330Z,2.17
2022-10-17T06:20:21.839Z,1.80
2022-10-17T06:23:24.321Z,2.47
2022-10-17T06:26:28.135Z,2.13
2022-10-17T06:29:30.702Z,2.40
2022-10-17T06:32:33.205Z,2.40
2022-10-17T06:35:35.737Z,2.00
2022-10-17T06:38:38.507Z,2.10
2022-10-17T06:41:44.423Z,2.10
2022-10-17T06:44:46.920Z,2.20
2022-10-17T06:47:49.859Z,2.73
2022-10-17T06:50:52.340Z,2.30
2022-10-17T06:53:54.825Z,2.40
2022-10-17T06:56:58.703Z,2.57
2022-10-17T07:00:01.195Z,2.53
2022-10-17T07:03:03.694Z,2.87
2022-10-17T07:06:06.525Z,2.67
2022-10-17T07:09:09.534Z,2.17
2022-10-17T07:12:13.435Z,2.80
2022-10-17T07:15:16.115Z,2.00
2022-10-17T07:18:18.613Z,2.30
2022-10-17T07:21:21.917Z,2.20
2022-10-17T07:24:24.460Z,2.43
2022-10-17T07:27:28.803Z,2.47
2022-10-17T07:30:31.473Z,2.40
2022-10-17T07:33:34.177Z,2.37
2022-10-17T07:36:36.765Z,2.67
2022-10-17T07:39:39.984Z,2.37
2022-10-17T07:42:43.794Z,2.53
2022-10-17T07:45:46.321Z,2.37
2022-10-17T07:48:48.789Z,2.27
2022-10-17T07:51:51.305Z,2.47
2022-10-17T07:54:53.773Z,2.40
2022-10-17T07:57:58.035Z,2.60
2022-10-17T08:04:09.535Z,2.43
2022-10-17T08:07:20.927Z,2.50
2022-10-17T08:10:27.712Z,2.50
2022-10-17T08:13:31.555Z,2.20
2022-10-17T08:16:34.037Z,2.20
2022-10-17T08:19:39.481Z,2.17
2022-10-17T08:22:42.117Z,2.43
2022-10-17T08:25:44.616Z,2.33
2022-10-17T08:28:48.831Z,2.50
2022-10-17T08:31:54.187Z,2.37
2022-10-17T08:35:01.163Z,2.20
2022-10-17T08:38:03.792Z,2.20
2022-10-17T08:41:15.353Z,2.47
2022-10-17T08:44:28.796Z,2.40
2022-10-17T08:47:39.329Z,2.10
2022-10-17T08:50:46.701Z,2.23
2022-10-17T08:53:53.777Z,2.63
2022-10-17T08:56:56.491Z,2.33
2022-10-17T09:00:00.333Z,2.30
2022-10-17T09:03:20.571Z,2.40
2022-10-17T09:06:29.890Z,2.00
2022-10-17T09:09:41.235Z,1.90
2022-10-17T09:12:52.984Z,2.10
2022-10-17T09:16:10.232Z,2.13
2022-10-17T09:19:18.257Z,2.50
2022-10-17T09:22:24.548Z,2.20
2022-10-17T09:25:28.455Z,2.50
2022-10-17T09:28:34.204Z,2.10
2022-10-17T09:31:44.969Z,2.03
2022-10-17T09:34:47.585Z,2.03
2022-10-17T09:37:50.956Z,2.20
2022-10-17T09:40:57.559Z,1.90
2022-10-17T09:44:09.822Z,2.10
2022-10-17T09:47:23.528Z,2.10
2022-10-17T09:50:29.476Z,1.97
2022-10-17T09:53:35.946Z,2.10
2022-10-17T09:56:59.782Z,2.00
2022-10-17T10:00:05.168Z,1.90
2022-10-17T10:03:16.794Z,2.33
2022-10-17T10:06:21.739Z,2.10
2022-10-17T10:09:28.553Z,2.30
2022-10-17T10:12:33.607Z,1.97
2022-10-17T10:15:38.924Z,2.08
2022-10-17T10:18:43.903Z,2.10
2022-10-17T10:21:56.981Z,2.27
2022-10-17T10:25:12.340Z,2.07
2022-10-17T10:28:18.124Z,2.08
2022-10-17T10:31:29.046Z,2.20
2022-10-17T10:34:35.682Z,2.30
2022-10-17T10:37:43.393Z,2.20
2022-10-17T10:40:47.995Z,2.30
2022-10-17T10:43:52.977Z,2.20
2022-10-17T10:47:18.679Z,1.80
2022-10-17T10:50:30.261Z,2.10
2022-10-17T10:53:44.841Z,2.10
2022-10-17T10:56:52.647Z,2.25
2022-10-17T11:00:03.372Z,2.15
2022-10-17T11:03:13.513Z,2.30
2022-10-17T11:06:23.439Z,2.35
2022-10-17T11:09:34.061Z,2.25
2022-10-17T11:12:40.278Z,2.20
2022-10-17T11:15:47.718Z,2.70
2022-10-17T11:18:54.242Z,2.33
2022-10-17T11:22:09.086Z,2.30
2022-10-17T11:25:23.076Z,2.50
2022-10-17T11:28:26.551Z,2.38
2022-10-17T11:31:33.458Z,2.87
2022-10-17T11:34:41.752Z,2.17
2022-10-17T11:37:50.658Z,2.30
2022-10-17T11:40:57.043Z,2.30
2022-10-17T11:44:04.981Z,2.53
2022-10-17T11:47:18.959Z,2.40
2022-10-17T11:53:56.895Z,2.33
2022-10-17T11:57:25.164Z,2.87
2022-10-17T12:00:41.724Z,2.35
2022-10-17T12:04:12.486Z,2.78
2022-10-17T12:07:20.882Z,2.15
2022-10-17T12:10:44.666Z,2.53
2022-10-17T12:13:53.020Z,2.50
2022-10-17T12:16:55.569Z,2.90
2022-10-17T12:20:30.445Z,2.27
2022-10-17T12:23:36.278Z,2.10
2022-10-17T12:26:40.134Z,2.50
2022-10-17T12:29:42.659Z,3.13
2022-10-17T12:33:06.597Z,2.80
2022-10-17T12:36:49.365Z,3.30
2022-10-17T12:39:54.529Z,3.37
2022-10-17T12:42:58.360Z,3.10
2022-10-17T12:46:01.897Z,3.13
2022-10-17T12:49:20.540Z,3.43
2022-10-17T12:52:25.684Z,2.90
2022-10-17T12:55:28.573Z,3.30
2022-10-17T12:58:32.619Z,3.30
2022-10-17T13:01:39.313Z,3.20
2022-10-17T13:04:41.901Z,2.90
2022-10-17T13:07:49.408Z,3.23
2022-10-17T13:10:53.671Z,3.47
2022-10-17T13:14:00.219Z,3.70
2022-10-17T13:17:05.799Z,3.87
2022-10-17T13:20:25.643Z,3.30
2022-10-17T13:23:34.549Z,3.20
2022-10-17T13:26:37.037Z,3.63
2022-10-17T13:29:45.340Z,4.03
2022-10-17T13:32:47.827Z,4.40
2022-10-17T13:36:05.669Z,4.23
2022-10-17T13:39:13.649Z,5.00
2022-10-17T13:42:23.872Z,4.27
2022-10-17T13:45:31.314Z,4.53
2022-10-17T13:48:37.558Z,5.03
2022-10-17T13:51:44.792Z,4.90
2022-10-17T13:54:50.590Z,5.33
2022-10-17T13:57:53.294Z,5.43
2022-10-17T14:00:57.824Z,5.07
2022-10-17T14:04:08.848Z,5.77
2022-10-17T14:07:25.870Z,5.10
2022-10-17T14:10:34.244Z,5.90
2022-10-17T14:13:36.844Z,6.23
2022-10-17T14:16:43.707Z,5.90
2022-10-17T14:19:55.468Z,5.30
2022-10-17T14:23:30.697Z,6.60
2022-10-17T14:26:37.128Z,6.13
2022-10-17T14:29:52.665Z,5.00
2022-10-17T14:32:58.860Z,6.20
2022-10-17T14:36:03.545Z,5.93
2022-10-17T14:39:13.341Z,6.13
2022-10-17T14:42:20.760Z,5.63
2022-10-17T14:45:26.758Z,6.43
2022-10-17T14:48:31.994Z,6.17
2022-10-17T14:51:50.186Z,5.87
2022-10-17T14:54:59.295Z,6.10
2022-10-17T14:58:02.608Z,6.20
2022-10-17T15:01:05.156Z,6.47
2022-10-17T15:04:10.690Z,5.83
2022-10-17T15:07:17.420Z,6.20
2022-10-17T15:10:41.862Z,6.30
2022-10-17T15:13:45.756Z,7.53
2022-10-17T15:16:48.348Z,7.53
2022-10-17T15:19:52.294Z,7.33
2022-10-17T15:22:54.837Z,7.20
2022-10-17T15:25:57.319Z,6.67
2022-10-17T15:29:00.441Z,7.53
2022-10-17T15:32:02.998Z,7.80
2022-10-17T15:35:07.849Z,6.97
2022-10-17T15:38:12.614Z,9.27
2022-10-17T15:41:15.310Z,7.73
2022-10-17T15:44:17.925Z,7.60
2022-10-17T15:47:25.672Z,7.57
2022-10-17T15:50:30.521Z,7.80
2022-10-17T15:53:32.991Z,7.67
2022-10-17T15:56:38.144Z,8.10
2022-10-17T15:59:40.647Z,8.70
2022-10-17T16:02:43.342Z,7.47
2022-10-17T16:05:47.276Z,7.83
2022-10-17T16:08:51.006Z,7.70
2022-10-17T16:11:53.511Z,7.80
2022-10-17T16:14:56.622Z,6.60
2022-10-17T16:18:01.671Z,7.13
2022-10-17T16:21:10.889Z,7.27
2022-10-17T16:24:13.818Z,7.90
2022-10-17T16:27:16.354Z,7.50
2022-10-17T16:30:20.102Z,7.37
2022-10-17T16:33:22.606Z,6.60
2022-10-17T16:36:26.798Z,6.97
2022-10-17T16:39:29.279Z,7.20
2022-10-17T16:42:31.969Z,6.50
2022-10-17T16:45:34.771Z,6.60
2022-10-17T16:48:37.313Z,7.63
2022-10-17T16:51:41.174Z,7.07
2022-10-17T16:54:43.713Z,6.73
2022-10-17T16:57:48.832Z,7.30
2022-10-17T17:00:51.884Z,7.23
2022-10-17T17:03:55.015Z,7.07
2022-10-17T17:06:58.851Z,8.07
2022-10-17T17:10:01.325Z,7.43
2022-10-17T17:13:04.434Z,7.97
2022-10-17T17:16:08.540Z,7.50
2022-10-17T17:19:13.357Z,8.27
2022-10-17T17:22:17.258Z,8.77
2022-10-17T17:25:19.953Z,8.17
2022-10-17T17:28:22.503Z,8.40
2022-10-17T17:31:27.159Z,8.63
2022-10-17T17:34:29.645Z,9.10
2022-10-17T17:37:33.634Z,8.77
2022-10-17T17:40:36.148Z,9.23
2022-10-17T17:43:38.630Z,8.73
2022-10-17T17:46:43.399Z,8.60
2022-10-17T17:49:45.969Z,9.03
2022-10-17T17:52:51.062Z,9.43
2022-10-17T17:56:02.348Z,9.20
2022-10-17T17:59:05.233Z,9.20
2022-10-17T18:02:08.786Z,10.30
2022-10-17T18:05:11.370Z,9.33
2022-10-17T18:08:15.214Z,9.97
2022-10-17T18:11:21.173Z,10.00
2022-10-17T18:14:25.491Z,10.63
2022-10-17T18:17:28.174Z,10.87
2022-10-17T18:20:30.823Z,12.10
2022-10-17T18:23:37.567Z,10.97
2022-10-17T18:26:40.068Z,10.77
2022-10-17T18:29:42.634Z,10.80
2022-10-17T18:32:45.110Z,12.47
2022-10-17T18:35:47.607Z,11.20
2022-10-17T18:38:51.434Z,11.00
2022-10-17T18:41:53.916Z,11.60
2022-10-17T18:44:56.731Z,10.63
2022-10-17T18:47:59.262Z,10.17
2022-10-17T18:51:02.205Z,10.03
2022-10-17T18:54:06.255Z,11.30
2022-10-17T18:57:08.781Z,11.97
2022-10-17T19:00:12.392Z,12.27
2022-10-17T19:03:15.031Z,12.87
2022-10-17T19:06:19.795Z,12.53
2022-10-17T19:09:23.605Z,11.50
2022-10-17T19:12:26.208Z,13.10
2022-10-17T19:15:28.677Z,11.80
2022-10-17T19:18:31.168Z,13.00
2022-10-17T19:21:33.847Z,11.63
2022-10-17T19:24:38.113Z,11.33
2022-10-17T19:27:40.604Z,12.13
2022-10-17T19:30:43.655Z,11.23
2022-10-17T19:33:46.227Z,12.00
2022-10-17T19:36:48.702Z,12.07
2022-10-17T19:39:52.541Z,10.30
2022-10-17T19:42:55.180Z,12.13
2022-10-17T19:45:58.596Z,12.57
2022-10-17T19:49:02.125Z,12.07
2022-10-17T19:52:04.834Z,11.53
2022-10-17T19:55:09.338Z,12.50
2022-10-17T19:58:12.594Z,12.97
2022-10-17T20:01:17.356Z,12.90
2022-10-17T20:04:20.041Z,13.37
2022-10-17T20:07:22.533Z,12.63
2022-10-17T20:10:26.476Z,13.17
2022-10-17T20:13:28.939Z,13.50
2022-10-17T20:16:35.317Z,12.37
2022-10-17T20:19:37.793Z,12.77
2022-10-17T20:22:40.282Z,11.50
2022-10-17T20:25:44.227Z,10.07
2022-10-17T20:28:47.541Z,9.60
2022-10-17T20:31:50.704Z,8.77
2022-10-17T20:34:53.306Z,8.93
2022-10-17T20:37:56.171Z,9.73
2022-10-17T20:41:03.122Z,9.10
2022-10-17T20:44:06.985Z,7.63
2022-10-17T20:47:16.259Z,8.40
2022-10-17T20:50:18.944Z,8.00
2022-10-17T20:53:36.646Z,8.73
2022-10-17T20:56:41.342Z,8.93
2022-10-17T20:59:45.494Z,7.77
2022-10-17T21:02:48.033Z,6.87
2022-10-17T21:05:50.684Z,7.77
2022-10-17T21:08:54.038Z,7.60
2022-10-17T21:11:58.089Z,6.90
2022-10-17T21:15:01.037Z,7.10
2022-10-17T21:18:03.654Z,7.00
2022-10-17T21:21:11.844Z,7.37
2022-10-17T21:24:18.021Z,7.30
2022-10-17T21:27:22.113Z,6.90
2022-10-17T21:30:24.586Z,7.23
2022-10-17T21:33:29.862Z,6.90
2022-10-17T21:36:32.663Z,6.70
2022-10-17T21:39:35.320Z,6.70
2022-10-17T21:42:39.323Z,6.80
2022-10-17T21:45:41.946Z,6.07
2022-10-17T21:48:45.478Z,5.80
2022-10-17T21:51:49.064Z,8.73
2022-10-17T21:54:51.829Z,6.63
2022-10-17T21:57:55.778Z,5.73
2022-10-17T22:01:04.916Z,6.00
2022-10-17T22:04:09.147Z,6.73
2022-10-17T22:07:11.634Z,5.23
2022-10-17T22:10:14.133Z,5.50
2022-10-17T22:13:17.941Z,5.90
2022-10-17T22:16:20.522Z,6.07
2022-10-17T22:19:26.719Z,6.17
2022-10-17T22:22:29.278Z,6.33
2022-10-17T22:25:31.870Z,6.00
2022-10-17T22:28:36.489Z,6.00
2022-10-17T22:31:39.522Z,5.73
2022-10-17T22:34:42.042Z,5.90
2022-10-17T22:37:44.528Z,6.10
2022-10-17T22:40:47.907Z,6.07
2022-10-17T22:43:51.731Z,6.07
2022-10-17T22:46:54.228Z,6.00
2022-10-17T22:49:57.094Z,5.67
2022-10-17T22:52:59.765Z,6.33
2022-10-17T22:56:04.199Z,6.50
2022-10-17T22:59:08.041Z,6.50
2022-10-17T23:02:10.517Z,6.17
2022-10-17T23:05:13.025Z,6.00
2022-10-17T23:08:17.765Z,6.70
2022-10-17T23:11:20.692Z,7.20
2022-10-17T23:14:24.551Z,7.10
2022-10-17T23:17:27.034Z,6.57
2022-10-17T23:20:30.381Z,7.20
2022-10-17T23:23:32.905Z,7.37
2022-10-17T23:26:35.397Z,6.47
2022-10-17T23:29:39.263Z,6.63
2022-10-17T23:32:42.379Z,8.37
2022-10-17T23:35:44.858Z,7.27
2022-10-17T23:38:48.424Z,7.47
2022-10-17T23:41:50.927Z,8.27
2022-10-17T23:44:54.824Z,7.73
2022-10-17T23:47:57.302Z,7.90
2022-10-17T23:50:59.781Z,7.97
2022-10-17T23:54:02.262Z,7.53
2022-10-17T23:57:04.830Z,7.80
